createdAt,value
2019-03-06T00:00:49.810Z,1.36
2019-03-06T00:01:56.570Z,1.30
2019-03-06T00:02:59.339Z,1.38
2019-03-06T00:04:02.466Z,1.44
2019-03-06T00:05:06.372Z,1.44
2019-03-06T00:06:16.431Z,1.46
2019-03-06T00:07:14.521Z,1.46
2019-03-06T00:08:24.609Z,1.43
2019-03-06T00:09:27.546Z,1.31
2019-03-06T00:10:31.536Z,1.31
2019-03-06T00:11:36.495Z,1.29
2019-03-06T00:12:39.563Z,1.31
2019-03-06T00:13:42.756Z,1.36
2019-03-06T00:14:45.579Z,1.41
2019-03-06T00:15:48.363Z,1.27
2019-03-06T00:16:51.137Z,1.27
2019-03-06T00:17:53.907Z,1.24
2019-03-06T00:18:57.093Z,1.15
2019-03-06T00:20:00.337Z,1.15
2019-03-06T00:21:03.165Z,1.28
2019-03-06T00:22:05.930Z,1.37
2019-03-06T00:23:08.771Z,1.38
2019-03-06T00:24:14.050Z,1.38
2019-03-06T00:25:17.320Z,1.37
2019-03-06T00:27:34.532Z,1.39
2019-03-06T00:28:42.344Z,1.36
2019-03-06T00:29:47.320Z,1.35
2019-03-06T00:30:55.606Z,1.35
2019-03-06T00:32:01.196Z,1.30
2019-03-06T00:33:06.763Z,1.30
2019-03-06T00:34:09.573Z,1.29
2019-03-06T00:35:17.251Z,1.31
2019-03-06T00:36:22.389Z,1.29
2019-03-06T00:37:25.203Z,1.29
2019-03-06T00:38:28.295Z,1.25
2019-03-06T00:39:37.267Z,1.25
2019-03-06T00:40:54.101Z,1.24
2019-03-06T00:41:56.918Z,1.30
2019-03-06T00:43:01.393Z,1.38
2019-03-06T00:44:04.496Z,1.44
2019-03-06T00:45:07.363Z,1.50
2019-03-06T00:46:10.237Z,1.53
2019-03-06T00:47:13.060Z,1.51
2019-03-06T00:48:15.896Z,1.51
2019-03-06T00:49:18.897Z,1.45
2019-03-06T00:50:21.966Z,1.46
2019-03-06T00:51:24.851Z,1.45
2019-03-06T00:52:27.652Z,1.51
2019-03-06T00:53:31.821Z,1.42
2019-03-06T00:54:34.621Z,1.42
2019-03-06T00:55:37.418Z,1.55
2019-03-06T00:56:40.632Z,1.55
2019-03-06T00:57:43.466Z,1.63
2019-03-06T00:58:46.310Z,1.66
2019-03-06T00:59:49.466Z,1.69
2019-03-06T01:00:52.275Z,1.68
2019-03-06T01:01:55.085Z,1.64
2019-03-06T01:02:58.224Z,1.56
2019-03-06T01:04:01.625Z,1.52
2019-03-06T01:05:04.519Z,1.54
2019-03-06T01:06:07.329Z,1.54
2019-03-06T01:07:10.160Z,1.56
2019-03-06T01:08:13.009Z,1.60
2019-03-06T01:09:17.420Z,1.60
2019-03-06T01:10:20.242Z,1.60
2019-03-06T01:11:23.234Z,1.60
2019-03-06T01:12:26.062Z,1.68
2019-03-06T01:13:28.962Z,1.68
2019-03-06T01:14:31.770Z,1.73
2019-03-06T01:15:34.860Z,1.80
2019-03-06T01:16:37.668Z,1.89
2019-03-06T01:17:40.496Z,1.89
2019-03-06T01:18:43.416Z,1.87
2019-03-06T01:19:46.432Z,1.88
2019-03-06T01:20:49.260Z,1.92
2019-03-06T01:21:52.388Z,1.88
2019-03-06T01:22:55.193Z,1.83
2019-03-06T01:23:58.477Z,1.83
2019-03-06T01:25:03.567Z,1.78
2019-03-06T01:26:06.450Z,1.75
2019-03-06T01:27:09.241Z,1.75
2019-03-06T01:28:12.353Z,1.72
2019-03-06T01:29:15.126Z,1.81
2019-03-06T01:30:18.938Z,1.84
2019-03-06T01:31:24.780Z,1.91
2019-03-06T01:32:27.642Z,1.97
2019-03-06T01:33:49.556Z,1.97
2019-03-06T01:35:12.589Z,1.96
2019-03-06T01:36:40.092Z,2.04
2019-03-06T01:37:58.678Z,2.20
2019-03-06T01:39:08.815Z,2.20
2019-03-06T01:40:26.646Z,2.27
2019-03-06T01:41:51.514Z,2.25
2019-03-06T01:43:05.655Z,2.11
2019-03-06T01:44:13.024Z,2.06
2019-03-06T01:45:16.040Z,2.03
2019-03-06T01:46:18.903Z,1.98
2019-03-06T01:47:21.875Z,1.99
2019-03-06T01:48:24.802Z,1.88
2019-03-06T01:49:27.712Z,1.96
2019-03-06T01:50:30.852Z,1.94
2019-03-06T01:51:33.698Z,1.96
2019-03-06T01:52:36.561Z,1.97
2019-03-06T01:53:39.353Z,2.04
2019-03-06T01:54:42.893Z,2.04
2019-03-06T01:55:45.720Z,2.03
2019-03-06T01:56:48.788Z,2.05
2019-03-06T01:57:51.636Z,2.05
2019-03-06T01:58:54.645Z,1.97
2019-03-06T01:59:57.495Z,1.98
2019-03-06T02:01:00.304Z,1.98
2019-03-06T02:02:05.942Z,1.98
2019-03-06T02:03:09.049Z,2.01
2019-03-06T02:04:11.920Z,1.84
2019-03-06T02:05:14.758Z,1.89
2019-03-06T02:06:19.775Z,1.94
2019-03-06T02:07:22.768Z,2.05
2019-03-06T02:08:25.629Z,2.12
2019-03-06T02:09:28.795Z,2.12
2019-03-06T02:10:32.082Z,2.01
2019-03-06T02:11:35.332Z,1.99
2019-03-06T02:12:38.150Z,1.92
2019-03-06T02:13:41.001Z,1.89
2019-03-06T02:14:43.823Z,1.94
2019-03-06T02:15:48.717Z,2.01
2019-03-06T02:16:51.550Z,2.06
2019-03-06T02:17:54.379Z,2.15
2019-03-06T02:18:57.629Z,2.26
2019-03-06T02:20:00.928Z,2.31
2019-03-06T02:21:04.261Z,2.35
2019-03-06T02:22:07.784Z,2.37
2019-03-06T02:23:10.583Z,2.33
2019-03-06T02:24:13.410Z,2.35
2019-03-06T02:25:16.210Z,2.32
2019-03-06T02:26:19.276Z,2.30
2019-03-06T02:27:22.483Z,2.33
2019-03-06T02:28:25.573Z,2.39
2019-03-06T02:29:28.396Z,2.36
2019-03-06T02:30:31.244Z,2.37
2019-03-06T02:31:34.097Z,2.37
2019-03-06T02:32:36.912Z,2.35
2019-03-06T02:33:39.747Z,2.34
2019-03-06T02:34:42.827Z,2.32
2019-03-06T02:35:45.636Z,2.30
2019-03-06T02:36:48.540Z,2.40
2019-03-06T02:37:51.332Z,2.44
2019-03-06T02:38:54.138Z,2.43
2019-03-06T02:39:56.926Z,2.57
2019-03-06T02:41:00.228Z,2.57
2019-03-06T02:42:03.109Z,2.64
2019-03-06T02:43:06.034Z,2.69
2019-03-06T02:44:08.900Z,2.80
2019-03-06T02:45:11.771Z,2.80
2019-03-06T02:46:14.645Z,3.00
2019-03-06T02:47:17.949Z,3.11
2019-03-06T02:48:20.742Z,3.14
2019-03-06T02:49:23.686Z,3.30
2019-03-06T02:50:26.656Z,3.32
2019-03-06T02:51:29.434Z,3.51
2019-03-06T02:52:32.252Z,3.55
2019-03-06T02:53:35.360Z,3.59
2019-03-06T02:54:38.329Z,3.56
2019-03-06T02:55:41.413Z,3.51
2019-03-06T02:56:47.060Z,3.54
2019-03-06T02:57:54.695Z,3.55
2019-03-06T02:59:15.091Z,3.63
2019-03-06T03:00:36.315Z,3.66
2019-03-06T03:01:59.292Z,3.66
2019-03-06T03:03:24.841Z,3.63
2019-03-06T03:04:41.774Z,3.58
2019-03-06T03:05:59.702Z,3.57
2019-03-06T03:07:06.002Z,3.57
2019-03-06T03:08:08.825Z,3.66
2019-03-06T03:09:11.610Z,3.65
2019-03-06T03:10:14.864Z,3.66
2019-03-06T03:11:18.037Z,3.71
2019-03-06T03:12:20.849Z,3.72
2019-03-06T03:13:23.668Z,3.80
2019-03-06T03:14:26.487Z,3.92
2019-03-06T03:15:29.358Z,3.92
2019-03-06T03:16:32.342Z,3.92
2019-03-06T03:17:35.456Z,3.89
2019-03-06T03:18:38.277Z,3.87
2019-03-06T03:19:41.082Z,3.92
2019-03-06T03:20:43.891Z,3.95
2019-03-06T03:21:47.030Z,3.98
2019-03-06T03:22:49.848Z,3.97
2019-03-06T03:23:52.941Z,3.97
2019-03-06T03:24:55.751Z,3.97
2019-03-06T03:25:58.574Z,3.96
2019-03-06T03:27:01.501Z,3.94
2019-03-06T03:28:04.455Z,3.94
2019-03-06T03:29:07.351Z,3.97
2019-03-06T03:30:10.430Z,3.96
2019-03-06T03:31:22.285Z,3.91
2019-03-06T03:32:25.087Z,4.01
2019-03-06T03:33:27.866Z,4.00
2019-03-06T03:34:30.749Z,4.00
2019-03-06T03:35:33.707Z,4.06
2019-03-06T03:36:36.785Z,4.06
2019-03-06T03:37:39.804Z,4.07
2019-03-06T03:38:42.617Z,4.08
2019-03-06T03:39:45.479Z,4.08
2019-03-06T03:40:48.331Z,4.06
2019-03-06T03:41:51.143Z,4.13
2019-03-06T03:42:54.509Z,4.13
2019-03-06T03:43:57.420Z,4.12
2019-03-06T03:45:00.530Z,4.12
2019-03-06T03:46:03.414Z,4.13
2019-03-06T03:47:06.217Z,4.14
2019-03-06T03:48:09.017Z,4.14
2019-03-06T03:49:12.167Z,4.13
2019-03-06T03:50:14.959Z,4.09
2019-03-06T03:51:18.023Z,4.09
2019-03-06T03:52:20.950Z,4.12
2019-03-06T03:53:23.741Z,4.09
2019-03-06T03:54:26.599Z,4.08
2019-03-06T03:55:29.677Z,4.11
2019-03-06T03:56:32.567Z,4.09
2019-03-06T03:57:35.785Z,4.06
2019-03-06T03:58:38.586Z,4.06
2019-03-06T03:59:41.382Z,4.01
2019-03-06T04:00:44.207Z,4.00
2019-03-06T04:01:47.744Z,4.00
2019-03-06T04:02:50.601Z,4.00
2019-03-06T04:03:53.417Z,3.98
2019-03-06T04:04:56.224Z,4.03
2019-03-06T04:05:59.260Z,4.03
2019-03-06T04:07:02.150Z,4.08
2019-03-06T04:08:05.261Z,4.09
2019-03-06T04:09:08.495Z,4.07
2019-03-06T04:10:11.716Z,4.02
2019-03-06T04:11:14.537Z,4.01
2019-03-06T04:12:17.857Z,4.01
2019-03-06T04:13:20.683Z,3.95
2019-03-06T04:14:23.993Z,3.94
2019-03-06T04:15:26.868Z,3.93
2019-03-06T04:16:30.320Z,3.85
2019-03-06T04:17:33.852Z,3.80
2019-03-06T04:18:36.645Z,3.74
2019-03-06T04:19:40.224Z,3.75
2019-03-06T04:20:43.506Z,3.79
2019-03-06T04:21:46.695Z,3.83
2019-03-06T04:22:49.567Z,3.87
2019-03-06T04:23:52.382Z,3.96
2019-03-06T04:24:55.135Z,4.04
2019-03-06T04:25:57.978Z,4.05
2019-03-06T04:27:01.504Z,4.05
2019-03-06T04:28:04.364Z,4.07
2019-03-06T04:29:07.219Z,4.09
2019-03-06T04:30:10.027Z,4.09
2019-03-06T04:31:12.897Z,4.17
2019-03-06T04:32:15.709Z,4.24
2019-03-06T04:33:18.862Z,4.25
2019-03-06T04:34:21.883Z,4.22
2019-03-06T04:35:24.766Z,4.22
2019-03-06T04:36:27.617Z,4.24
2019-03-06T04:37:30.409Z,4.21
2019-03-06T04:38:33.295Z,4.31
2019-03-06T04:39:38.541Z,4.31
2019-03-06T04:40:41.346Z,4.38
2019-03-06T04:41:44.262Z,4.42
2019-03-06T04:42:47.484Z,4.33
2019-03-06T04:43:50.377Z,4.33
2019-03-06T04:44:55.365Z,4.41
2019-03-06T04:46:02.846Z,4.48
2019-03-06T04:47:05.661Z,4.48
2019-03-06T04:48:08.538Z,4.42
2019-03-06T04:49:11.344Z,4.47
2019-03-06T04:50:14.209Z,4.45
2019-03-06T04:51:17.327Z,4.47
2019-03-06T04:52:20.435Z,4.48
2019-03-06T04:53:23.263Z,4.49
2019-03-06T04:54:26.482Z,4.50
2019-03-06T04:55:29.339Z,4.53
2019-03-06T04:56:32.464Z,4.48
2019-03-06T04:57:40.883Z,4.51
2019-03-06T04:58:43.975Z,4.42
2019-03-06T04:59:46.826Z,4.47
2019-03-06T05:00:49.735Z,4.47
2019-03-06T05:01:59.853Z,4.46
2019-03-06T05:03:02.635Z,4.45
2019-03-06T05:04:05.423Z,4.42
2019-03-06T05:05:08.550Z,4.48
2019-03-06T05:06:11.810Z,4.47
2019-03-06T05:07:14.665Z,4.50
2019-03-06T05:08:17.637Z,4.48
2019-03-06T05:09:20.684Z,4.48
2019-03-06T05:10:24.478Z,4.46
2019-03-06T05:11:27.761Z,4.52
2019-03-06T05:12:30.626Z,4.50
2019-03-06T05:13:33.563Z,4.57
2019-03-06T05:14:36.432Z,4.57
2019-03-06T05:15:40.744Z,4.54
2019-03-06T05:17:01.225Z,4.54
2019-03-06T05:18:17.827Z,4.58
2019-03-06T05:19:20.634Z,4.57
2019-03-06T05:20:23.431Z,4.60
2019-03-06T05:21:26.266Z,4.60
2019-03-06T05:22:29.165Z,4.64
2019-03-06T05:23:32.261Z,4.60
2019-03-06T05:24:35.544Z,4.60
2019-03-06T05:25:38.761Z,4.65
2019-03-06T05:26:41.592Z,4.65
2019-03-06T05:27:47.309Z,4.66
2019-03-06T05:28:50.188Z,4.66
2019-03-06T05:29:53.361Z,4.68
2019-03-06T05:30:56.615Z,4.63
2019-03-06T05:32:00.096Z,4.63
2019-03-06T05:33:02.953Z,4.71
2019-03-06T05:34:05.778Z,4.77
2019-03-06T05:35:08.609Z,4.78
2019-03-06T05:36:14.458Z,4.78
2019-03-06T05:37:17.303Z,4.84
2019-03-06T05:38:20.193Z,4.86
2019-03-06T05:39:23.076Z,4.82
2019-03-06T05:40:25.907Z,4.79
2019-03-06T05:41:28.692Z,4.79
2019-03-06T05:42:31.786Z,4.79
2019-03-06T05:43:35.027Z,4.80
2019-03-06T05:44:38.342Z,4.77
2019-03-06T05:45:41.142Z,4.89
2019-03-06T05:46:43.972Z,4.89
2019-03-06T05:47:47.607Z,4.86
2019-03-06T05:48:50.999Z,4.86
2019-03-06T05:49:53.987Z,4.77
2019-03-06T05:50:56.795Z,4.84
2019-03-06T05:51:59.763Z,4.85
2019-03-06T05:53:02.668Z,4.85
2019-03-06T05:54:05.469Z,4.88
2019-03-06T05:55:09.147Z,4.81
2019-03-06T05:56:14.495Z,4.85
2019-03-06T05:57:17.321Z,4.88
2019-03-06T05:58:20.191Z,4.83
2019-03-06T05:59:25.743Z,4.86
2019-03-06T06:00:28.995Z,4.85
2019-03-06T06:01:38.241Z,4.85
2019-03-06T06:02:41.034Z,4.85
2019-03-06T06:03:43.857Z,4.86
2019-03-06T06:04:46.724Z,4.84
2019-03-06T06:05:49.621Z,4.84
2019-03-06T06:06:53.261Z,4.86
2019-03-06T06:07:56.476Z,4.79
2019-03-06T06:08:59.284Z,4.83
2019-03-06T06:10:02.123Z,4.83
2019-03-06T06:11:04.995Z,4.84
2019-03-06T06:12:07.831Z,4.84
2019-03-06T06:13:10.627Z,4.83
2019-03-06T06:14:13.708Z,4.85
2019-03-06T06:15:16.550Z,4.84
2019-03-06T06:16:19.451Z,4.84
2019-03-06T06:17:22.265Z,4.81
2019-03-06T06:18:25.123Z,4.79
2019-03-06T06:19:27.952Z,4.78
2019-03-06T06:20:31.068Z,4.78
2019-03-06T06:21:51.625Z,4.76
2019-03-06T06:23:15.962Z,4.76
2019-03-06T06:24:21.795Z,4.76
2019-03-06T06:25:24.612Z,4.73
2019-03-06T06:26:27.885Z,4.73
2019-03-06T06:27:31.053Z,4.83
2019-03-06T06:28:34.034Z,4.83
2019-03-06T06:29:36.832Z,4.85
2019-03-06T06:43:52.525Z,4.94
2019-03-06T06:44:55.359Z,4.95
2019-03-06T06:45:58.193Z,4.96
2019-03-06T06:47:01.039Z,4.95
2019-03-06T06:48:03.834Z,4.94
2019-03-06T06:49:07.029Z,4.97
2019-03-06T06:50:09.832Z,5.00
2019-03-06T06:51:12.790Z,5.00
2019-03-06T06:52:15.589Z,5.01
2019-03-06T06:53:21.490Z,5.03
2019-03-06T06:54:24.410Z,5.04
2019-03-06T06:55:27.650Z,5.05
2019-03-06T06:56:30.769Z,4.99
2019-03-06T06:57:36.033Z,5.04
2019-03-06T06:58:38.866Z,5.04
2019-03-06T06:59:41.774Z,5.08
2019-03-06T07:01:09.735Z,5.09
2019-03-06T07:02:20.342Z,5.09
2019-03-06T07:03:47.921Z,5.20
2019-03-06T07:05:07.775Z,5.20
2019-03-06T07:06:49.044Z,5.24
2019-03-06T07:08:13.349Z,5.22
2019-03-06T07:09:33.086Z,5.23
2019-03-06T07:11:09.475Z,5.23
2019-03-06T07:12:34.019Z,5.22
2019-03-06T07:14:01.514Z,5.24
2019-03-06T07:15:17.349Z,5.27
2019-03-06T07:16:38.927Z,5.31
2019-03-06T07:17:48.018Z,5.32
2019-03-06T07:19:11.410Z,5.32
2019-03-06T07:20:39.377Z,5.38
2019-03-06T07:21:59.453Z,5.40
2019-03-06T07:23:14.030Z,5.47
2019-03-06T07:24:48.699Z,5.47
2019-03-06T07:26:05.411Z,5.84
2019-03-06T07:27:31.441Z,5.99
2019-03-06T07:29:01.261Z,6.14
2019-03-06T07:30:25.691Z,6.28
2019-03-06T07:31:50.150Z,6.28
2019-03-06T07:33:06.928Z,6.37
2019-03-06T07:34:27.052Z,6.29
2019-03-06T07:35:52.875Z,6.29
2019-03-06T07:37:05.769Z,5.94
2019-03-06T07:38:10.541Z,5.72
2019-03-06T07:39:39.932Z,5.73
2019-03-06T07:41:01.858Z,5.73
2019-03-06T07:42:21.795Z,5.71
2019-03-06T07:43:35.984Z,5.70
2019-03-06T07:44:57.507Z,5.55
2019-03-06T07:46:28.560Z,5.55
2019-03-06T07:47:44.253Z,5.57
2019-03-06T07:49:04.428Z,5.57
2019-03-06T07:50:35.292Z,5.62
2019-03-06T07:52:02.572Z,5.61
2019-03-06T07:53:15.580Z,5.61
2019-03-06T07:54:34.374Z,5.60
2019-03-06T07:55:54.083Z,5.58
2019-03-06T07:57:03.054Z,5.60
2019-03-06T07:58:06.347Z,5.62
2019-03-06T07:59:09.241Z,5.62
2019-03-06T08:00:12.202Z,5.69
2019-03-06T08:01:17.300Z,5.78
2019-03-06T08:02:21.239Z,5.80
2019-03-06T08:03:24.751Z,5.72
2019-03-06T08:04:27.927Z,5.79
2019-03-06T08:05:30.720Z,5.89
2019-03-06T08:06:33.611Z,5.89
2019-03-06T08:07:36.437Z,5.80
2019-03-06T08:08:39.692Z,5.72
2019-03-06T08:09:42.645Z,5.76
2019-03-06T08:10:49.569Z,5.85
2019-03-06T08:12:16.918Z,5.85
2019-03-06T08:13:38.481Z,5.89
2019-03-06T08:14:46.641Z,6.02
2019-03-06T08:15:57.653Z,5.98
2019-03-06T08:17:22.685Z,6.29
2019-03-06T08:18:53.023Z,6.29
2019-03-06T08:20:13.863Z,6.27
2019-03-06T08:21:41.215Z,6.24
2019-03-06T08:23:09.491Z,6.29
2019-03-06T08:24:47.317Z,6.27
2019-03-06T08:25:51.310Z,6.27
2019-03-06T08:26:54.120Z,6.16
2019-03-06T08:27:56.906Z,6.09
2019-03-06T08:29:03.262Z,6.07
2019-03-06T08:30:06.084Z,6.00
2019-03-06T08:31:39.693Z,5.96
2019-03-06T08:32:42.504Z,6.05
2019-03-06T08:33:45.320Z,6.07
2019-03-06T08:34:49.836Z,6.07
2019-03-06T08:35:53.038Z,6.18
2019-03-06T08:36:55.852Z,6.21
2019-03-06T08:38:01.608Z,6.25
2019-03-06T08:39:04.959Z,6.25
2019-03-06T08:40:07.825Z,6.30
2019-03-06T08:41:10.624Z,6.41
2019-03-06T08:42:16.767Z,6.49
2019-03-06T08:43:19.974Z,6.34
2019-03-06T08:44:25.828Z,6.33
2019-03-06T08:45:32.833Z,6.43
2019-03-06T08:46:59.914Z,6.45
2019-03-06T08:48:15.616Z,6.54
2019-03-06T08:49:55.329Z,6.54
2019-03-06T08:51:03.863Z,6.53
2019-03-06T08:52:30.939Z,6.59
2019-03-06T08:53:50.244Z,6.72
2019-03-06T08:55:13.298Z,6.75
2019-03-06T08:56:37.734Z,6.74
2019-03-06T08:58:02.602Z,6.79
2019-03-06T08:59:23.029Z,6.88
2019-03-06T09:00:42.970Z,6.99
2019-03-06T09:02:15.741Z,6.94
2019-03-06T09:03:38.570Z,7.00
2019-03-06T09:05:06.969Z,6.99
2019-03-06T09:06:24.720Z,6.99
2019-03-06T09:08:01.442Z,7.10
2019-03-06T09:09:38.644Z,7.09
2019-03-06T09:11:03.442Z,7.15
2019-03-06T09:12:16.599Z,7.20
2019-03-06T09:13:36.571Z,7.33
2019-03-06T09:14:56.463Z,7.35
2019-03-06T09:16:16.438Z,7.27
2019-03-06T09:17:46.870Z,7.34
2019-03-06T09:19:05.894Z,7.42
2019-03-06T09:20:40.680Z,7.43
2019-03-06T09:21:46.852Z,7.47
2019-03-06T09:23:05.943Z,7.47
2019-03-06T09:24:42.496Z,7.41
2019-03-06T09:25:55.702Z,7.48
2019-03-06T09:27:07.136Z,7.42
2019-03-06T09:28:28.802Z,7.55
2019-03-06T09:29:50.321Z,7.58
2019-03-06T09:31:11.876Z,7.66
2019-03-06T09:32:27.792Z,7.93
2019-03-06T09:33:58.423Z,8.16
2019-03-06T09:35:22.843Z,8.42
2019-03-06T09:36:44.438Z,8.42
2019-03-06T09:38:20.997Z,8.90
2019-03-06T09:39:34.279Z,8.90
2019-03-06T09:41:05.110Z,9.10
2019-03-06T09:42:38.613Z,9.07
2019-03-06T09:44:15.559Z,9.00
2019-03-06T09:45:45.899Z,9.42
2019-03-06T09:47:03.387Z,9.08
2019-03-06T09:48:57.062Z,9.58
2019-03-06T09:50:06.762Z,9.62
2019-03-06T09:51:32.636Z,9.71
2019-03-06T09:52:58.498Z,10.00
2019-03-06T09:54:18.499Z,9.75
2019-03-06T09:55:41.773Z,9.75
2019-03-06T09:57:06.199Z,10.18
2019-03-06T09:58:21.510Z,10.18
2019-03-06T09:59:29.633Z,10.38
2019-03-06T10:01:03.228Z,10.62
2019-03-06T10:02:28.449Z,10.53
2019-03-06T10:03:46.180Z,10.53
2019-03-06T10:05:03.640Z,10.72
2019-03-06T10:06:37.291Z,10.86
2019-03-06T10:07:58.270Z,10.86
2019-03-06T10:09:20.783Z,10.72
2019-03-06T10:10:47.544Z,10.72
2019-03-06T10:12:16.437Z,10.70
2019-03-06T10:13:41.594Z,11.08
2019-03-06T10:15:12.146Z,11.10
2019-03-06T10:16:20.488Z,10.85
2019-03-06T10:17:51.082Z,11.37
2019-03-06T10:19:12.781Z,11.28
2019-03-06T10:20:26.772Z,11.19
2019-03-06T10:21:36.376Z,11.46
2019-03-06T10:22:39.256Z,11.59
2019-03-06T10:23:42.120Z,11.34
2019-03-06T10:24:45.921Z,10.66
2019-03-06T10:25:48.559Z,10.89
2019-03-06T10:26:51.740Z,10.89
2019-03-06T10:27:54.593Z,10.90
2019-03-06T10:29:00.029Z,11.20
2019-03-06T10:30:03.039Z,11.73
2019-03-06T10:31:05.861Z,12.10
2019-03-06T10:32:08.677Z,11.84
2019-03-06T10:33:14.337Z,11.78
2019-03-06T10:34:17.158Z,11.71
2019-03-06T10:35:22.625Z,11.71
2019-03-06T10:36:25.606Z,11.29
2019-03-06T10:37:28.517Z,11.94
2019-03-06T10:38:43.708Z,11.55
2019-03-06T10:39:49.650Z,11.55
2019-03-06T10:40:52.465Z,10.56
2019-03-06T10:41:55.424Z,10.56
2019-03-06T10:42:59.987Z,10.43
2019-03-06T10:44:04.585Z,10.41
2019-03-06T10:45:08.156Z,10.48
2019-03-06T10:46:11.132Z,10.51
2019-03-06T10:47:14.050Z,10.56
2019-03-06T10:48:18.853Z,10.69
2019-03-06T10:49:22.455Z,10.71
2019-03-06T10:50:31.739Z,10.59
2019-03-06T10:51:37.508Z,10.59
2019-03-06T10:52:40.326Z,10.69
2019-03-06T10:53:43.147Z,10.69
2019-03-06T10:54:47.999Z,10.71
2019-03-06T10:55:50.762Z,10.59
2019-03-06T10:56:53.961Z,10.55
2019-03-06T10:57:58.842Z,10.49
2019-03-06T10:59:02.227Z,10.43
2019-03-06T11:00:07.436Z,10.49
2019-03-06T11:01:10.242Z,10.47
2019-03-06T11:02:13.315Z,10.44
2019-03-06T11:03:18.414Z,10.44
2019-03-06T11:04:49.319Z,10.41
2019-03-06T11:05:52.099Z,10.51
2019-03-06T11:06:56.150Z,10.60
2019-03-06T11:08:04.810Z,10.61
2019-03-06T11:09:07.230Z,10.48
2019-03-06T11:10:23.395Z,10.52
2019-03-06T11:11:20.134Z,10.52
2019-03-06T11:12:22.979Z,10.58
2019-03-06T11:13:26.112Z,10.59
2019-03-06T11:14:29.296Z,10.65
2019-03-06T11:15:34.398Z,10.65
2019-03-06T11:16:40.196Z,10.67
2019-03-06T11:17:43.706Z,10.67
2019-03-06T11:18:51.384Z,10.63
2019-03-06T11:19:54.406Z,10.72
2019-03-06T11:21:00.303Z,10.84
2019-03-06T11:22:07.404Z,10.84
2019-03-06T11:23:20.658Z,10.70
2019-03-06T11:24:24.841Z,10.95
2019-03-06T11:25:27.660Z,11.46
2019-03-06T11:26:30.570Z,11.62
2019-03-06T11:27:33.679Z,11.42
2019-03-06T11:28:36.583Z,11.10
2019-03-06T11:29:40.193Z,11.20
2019-03-06T11:42:39.754Z,10.88
2019-03-06T11:43:42.682Z,10.85
2019-03-06T11:44:55.775Z,10.90
2019-03-06T11:45:58.584Z,10.90
2019-03-06T11:47:01.600Z,11.00
2019-03-06T11:48:04.920Z,11.05
2019-03-06T11:49:07.619Z,11.05
2019-03-06T11:50:13.271Z,11.10
2019-03-06T11:51:16.454Z,11.07
2019-03-06T11:52:23.104Z,10.91
2019-03-06T11:53:25.932Z,11.00
2019-03-06T11:54:36.276Z,10.98
2019-03-06T11:55:40.477Z,11.10
2019-03-06T11:56:46.508Z,11.22
2019-03-06T11:57:49.345Z,11.18
2019-03-06T11:58:52.258Z,11.17
2019-03-06T11:59:57.304Z,11.18
2019-03-06T12:01:00.661Z,11.18
2019-03-06T12:02:03.709Z,11.16
2019-03-06T12:03:06.459Z,11.27
2019-03-06T12:04:09.175Z,11.17
2019-03-06T12:05:12.778Z,11.22
2019-03-06T12:06:18.346Z,11.51
2019-03-06T12:07:22.548Z,11.62
2019-03-06T12:08:29.004Z,11.46
2019-03-06T12:09:32.136Z,11.47
2019-03-06T12:10:37.019Z,11.62
2019-03-06T12:11:39.874Z,11.85
2019-03-06T12:12:42.825Z,12.05
2019-03-06T12:13:49.828Z,12.27
2019-03-06T12:14:52.793Z,12.28
2019-03-06T12:15:55.730Z,12.07
2019-03-06T12:16:58.892Z,12.28
2019-03-06T12:18:01.847Z,12.35
2019-03-06T12:19:09.831Z,12.52
2019-03-06T12:20:17.753Z,12.45
2019-03-06T12:21:28.715Z,12.37
2019-03-06T12:22:33.178Z,12.37
2019-03-06T12:23:36.300Z,12.53
2019-03-06T12:24:39.203Z,12.46
2019-03-06T12:25:43.101Z,12.57
2019-03-06T12:26:46.072Z,12.60
2019-03-06T12:27:48.795Z,12.77
2019-03-06T12:28:51.614Z,12.77
2019-03-06T12:29:57.231Z,12.12
2019-03-06T12:31:00.157Z,12.28
2019-03-06T12:32:07.136Z,12.57
2019-03-06T12:33:10.665Z,12.57
2019-03-06T12:34:13.557Z,12.89
2019-03-06T12:35:16.700Z,12.88
2019-03-06T12:36:19.436Z,12.65
2019-03-06T12:37:22.169Z,12.62
2019-03-06T12:38:25.934Z,12.69
2019-03-06T12:39:29.726Z,12.69
2019-03-06T12:40:32.925Z,12.66
2019-03-06T12:41:35.723Z,12.64
2019-03-06T12:42:38.624Z,12.64
2019-03-06T12:43:41.277Z,12.26
2019-03-06T12:44:44.005Z,12.21
2019-03-06T12:45:48.218Z,12.21
2019-03-06T12:46:51.073Z,12.50
2019-03-06T12:47:56.923Z,12.48
2019-03-06T12:48:59.802Z,12.39
2019-03-06T12:50:05.718Z,12.38
2019-03-06T12:51:07.384Z,12.36
2019-03-06T12:52:10.732Z,12.29
2019-03-06T12:53:16.512Z,12.13
2019-03-06T12:54:19.266Z,12.10
2019-03-06T12:55:22.165Z,12.01
2019-03-06T12:56:24.892Z,11.97
2019-03-06T12:57:27.844Z,11.89
2019-03-06T12:59:38.912Z,11.88
2019-03-06T13:00:41.653Z,11.92
2019-03-06T13:01:44.240Z,11.83
2019-03-06T13:02:52.389Z,11.83
2019-03-06T13:03:55.516Z,11.81
2019-03-06T13:04:58.208Z,11.76
2019-03-06T13:06:01.037Z,11.73
2019-03-06T13:07:03.849Z,11.73
2019-03-06T13:08:06.768Z,11.75
2019-03-06T13:09:10.155Z,11.76
2019-03-06T13:10:17.176Z,11.76
2019-03-06T13:11:19.925Z,11.67
2019-03-06T13:12:22.711Z,11.65
2019-03-06T13:13:35.264Z,11.65
2019-03-06T13:14:30.670Z,11.62
2019-03-06T13:15:33.402Z,11.56
2019-03-06T13:16:36.282Z,11.56
2019-03-06T13:17:41.726Z,11.50
2019-03-06T13:18:44.566Z,11.50
2019-03-06T13:19:47.529Z,11.49
2019-03-06T13:20:53.250Z,11.46
2019-03-06T13:21:58.876Z,11.40
2019-03-06T13:23:04.064Z,11.37
2019-03-06T13:24:06.316Z,11.31
2019-03-06T13:25:09.190Z,11.28
2019-03-06T13:26:12.089Z,11.33
2019-03-06T13:27:15.233Z,11.27
2019-03-06T13:28:18.064Z,11.26
2019-03-06T13:29:35.545Z,11.26
2019-03-06T13:30:38.367Z,11.25
2019-03-06T13:31:41.136Z,11.25
2019-03-06T13:33:08.581Z,11.24
2019-03-06T13:34:31.063Z,11.22
2019-03-06T13:35:34.294Z,11.22
2019-03-06T13:36:42.515Z,11.22
2019-03-06T13:37:52.060Z,11.22
2019-03-06T13:39:06.071Z,11.22
2019-03-06T13:40:00.964Z,11.15
2019-03-06T13:41:04.037Z,11.15
2019-03-06T13:42:10.111Z,11.10
2019-03-06T13:43:15.118Z,11.12
2019-03-06T13:44:19.431Z,11.12
2019-03-06T13:45:22.097Z,11.10
2019-03-06T13:46:25.150Z,11.10
2019-03-06T13:47:30.537Z,11.10
2019-03-06T13:48:35.893Z,11.11
2019-03-06T13:49:40.979Z,11.13
2019-03-06T13:50:48.567Z,11.13
2019-03-06T13:51:57.791Z,11.12
2019-03-06T13:53:00.492Z,11.14
2019-03-06T13:54:04.735Z,11.16
2019-03-06T13:55:08.135Z,11.16
2019-03-06T13:56:10.917Z,11.17
2019-03-06T13:57:17.918Z,11.17
2019-03-06T13:58:28.294Z,11.16
2019-03-06T13:59:30.992Z,11.16
2019-03-06T14:00:34.104Z,11.15
2019-03-06T14:01:39.972Z,11.19
2019-03-06T14:02:42.847Z,11.16
2019-03-06T14:03:46.644Z,11.15
2019-03-06T14:04:51.175Z,11.14
2019-03-06T14:05:56.928Z,11.13
2019-03-06T14:06:59.757Z,11.14
2019-03-06T14:08:05.680Z,11.14
2019-03-06T14:09:11.140Z,11.20
2019-03-06T14:10:16.582Z,11.20
2019-03-06T14:11:23.097Z,11.21
2019-03-06T14:12:30.393Z,11.20
2019-03-06T14:13:34.847Z,11.21
2019-03-06T14:14:39.059Z,11.26
2019-03-06T14:15:41.744Z,11.28
2019-03-06T14:16:44.552Z,11.31
2019-03-06T14:17:47.253Z,11.33
2019-03-06T14:18:50.025Z,11.37
2019-03-06T14:19:52.772Z,11.42
2019-03-06T14:20:55.849Z,11.45
2019-03-06T14:21:58.693Z,11.50
2019-03-06T14:23:03.308Z,11.50
2019-03-06T14:24:06.209Z,11.51
2019-03-06T14:25:09.164Z,11.50
2019-03-06T14:26:12.060Z,11.55
2019-03-06T14:27:15.170Z,11.59
2019-03-06T14:28:17.861Z,11.58
2019-03-06T14:29:20.559Z,11.52
2019-03-06T14:30:26.173Z,11.51
2019-03-06T14:31:32.172Z,11.49
2019-03-06T14:32:35.309Z,11.49
2019-03-06T14:33:38.712Z,11.52
2019-03-06T14:34:42.698Z,11.46
2019-03-06T14:35:50.258Z,11.43
2019-03-06T14:36:52.972Z,11.43
2019-03-06T14:37:58.194Z,11.42
2019-03-06T14:39:01.621Z,11.42
2019-03-06T14:40:11.295Z,11.41
2019-03-06T14:41:14.360Z,11.38
2019-03-06T14:42:17.793Z,11.38
2019-03-06T14:43:23.166Z,11.36
2019-03-06T14:44:28.981Z,11.34
2019-03-06T14:45:33.884Z,11.34
2019-03-06T14:46:44.139Z,11.34
2019-03-06T14:47:47.132Z,11.32
2019-03-06T14:48:50.093Z,11.34
2019-03-06T14:49:52.859Z,11.28
2019-03-06T14:50:58.420Z,11.28
2019-03-06T14:52:07.162Z,11.31
2019-03-06T14:53:05.804Z,11.28
2019-03-06T14:54:08.605Z,11.27
2019-03-06T14:55:11.337Z,11.27
2019-03-06T14:56:14.126Z,11.27
2019-03-06T14:57:19.016Z,11.27
2019-03-06T14:58:22.170Z,11.31
2019-03-06T14:59:25.057Z,11.33
2019-03-06T15:00:32.635Z,11.30
2019-03-06T15:01:38.039Z,11.32
2019-03-06T15:02:43.703Z,11.31
2019-03-06T15:03:46.507Z,11.33
2019-03-06T15:04:52.533Z,11.33
2019-03-06T15:05:55.497Z,11.37
2019-03-06T15:06:58.358Z,11.35
2019-03-06T15:08:01.484Z,11.34
2019-03-06T15:09:09.056Z,11.34
2019-03-06T15:10:11.831Z,11.34
2019-03-06T15:11:16.460Z,11.33
2019-03-06T15:12:19.407Z,11.28